Streetman, Texas
Current Conditions -  °F | °C
As of 4:53 AM on Friday 31 Oct 2014 (Local Time) from KCRS Reporting Station
Clear Clear  
Wind Chill: 59°   Ceiling: Unl
Heat Index: 59°   Visibility: 10mi
Dew Point: 47°   Wind: 8mph
Humidity: 64%   Direction: 340°NNW
Pressure: 30.18"   Gusts: NA
Location:  31.88°N, 96.32°W
Report Text: KCRS 310953Z AUTO 34007KT 10SM CLR 15/08 A3018 RMK AO2 SLP216 T01500083
Loading
Personal Weather Stations






























Interactive Weather Map
Tropical Storm Tracking
New forecast layout! Learn more

10-Day Weather Forecast

Advertisements
Track Severe Weather on mobile